Time;durP1;ratioP1;P1;durP2;ratioP2;P2;SDS_P1;SDS_P2;PMS_P1;PMS_P2;Temp;Humidity;BMP_temperature;BMP_pressure;BME280_temperature;BME280_humidity;BME280_pressure;Samples;Min_cycle;Max_cycle;Signal;HPM_P1;HPM_P2
2023/08/19 00:02:05;;;;;;;9.98;7.88;;;;;;;26.78;71.62;100282.19;4915330;29;20052;-70
2023/08/19 00:04:33;;;;;;;10.27;8.27;;;;;;;26.79;72.08;100281.16;4915151;29;20044;-70
2023/08/19 00:07:01;;;;;;;11.40;8.88;;;;;;;26.78;71.74;100286.81;4915498;29;20413;-70
2023/08/19 00:09:31;;;;;;;10.20;8.20;;;;;;;26.77;72.13;100290.59;4915410;29;20056;-70
2023/08/19 00:11:59;;;;;;;9.77;7.90;;;;;;;26.75;71.76;100282.59;4915325;29;20048;-70
2023/08/19 00:14:28;;;;;;;11.70;8.68;;;;;;;26.75;72.08;100288.06;4915267;29;20051;-70
2023/08/19 00:16:56;;;;;;;10.88;8.07;;;;;;;26.72;71.93;100285.69;4915174;29;20458;-70
2023/08/19 00:19:25;;;;;;;11.25;8.07;;;;;;;26.73;71.98;100284.69;4915258;29;20789;-70
2023/08/19 00:21:54;;;;;;;10.10;8.40;;;;;;;26.74;71.70;100297.31;4915349;29;20099;-70
2023/08/19 00:24:22;;;;;;;12.00;7.60;;;;;;;26.73;71.84;100284.69;4915173;29;20127;-70
2023/08/19 00:26:50;;;;;;;10.90;8.00;;;;;;;26.72;72.17;100291.16;4915456;29;20051;-70
2023/08/19 00:29:19;;;;;;;10.18;8.10;;;;;;;26.70;71.98;100290.53;4918943;29;20425;-70
2023/08/19 00:31:47;;;;;;;11.23;8.55;;;;;;;26.70;72.02;100290.53;4918804;29;20458;-70
2023/08/19 00:34:15;;;;;;;10.25;8.23;;;;;;;26.70;72.33;100301.47;4918942;29;20054;-70
2023/08/19 00:36:44;;;;;;;9.07;7.53;;;;;;;26.68;72.47;100299.97;4918608;29;20143;-70
2023/08/19 00:39:12;;;;;;;9.95;8.13;;;;;;;26.69;71.89;100302.50;4918659;29;20059;-70
2023/08/19 00:41:41;;;;;;;8.52;7.43;;;;;;;26.67;72.34;100301.88;4918698;29;20048;-70
2023/08/19 00:44:09;;;;;;;10.02;8.05;;;;;;;26.68;71.88;100302.72;4918388;29;20413;-69
2023/08/19 00:46:37;;;;;;;9.48;7.65;;;;;;;26.65;72.16;100301.22;4918805;29;20087;-70
2023/08/19 00:49:06;;;;;;;10.27;7.97;;;;;;;26.65;71.88;100292.19;4918711;29;20072;-70
2023/08/19 00:51:34;;;;;;;10.00;7.65;;;;;;;26.63;72.01;100295.09;4918534;29;20048;-70
2023/08/19 00:54:05;;;;;;;9.25;7.97;;;;;;;26.62;72.18;100293.38;4918551;29;20476;-70
2023/08/19 00:56:33;;;;;;;8.90;7.47;;;;;;;26.61;71.88;100291.69;4918346;29;20098;-70
2023/08/19 00:59:01;;;;;;;11.43;7.90;;;;;;;26.58;72.00;100283.91;4918278;29;20072;-70
2023/08/19 01:01:30;;;;;;;9.65;7.93;;;;;;;26.59;71.86;100288.31;4918493;29;20135;-70
2023/08/19 01:03:58;;;;;;;10.13;7.53;;;;;;;26.59;71.76;100290.22;4918308;29;20052;-70
2023/08/19 01:06:37;;;;;;;9.38;7.57;;;;;;;26.58;72.16;100291.25;4918210;29;20132;-70
2023/08/19 01:09:16;;;;;;;9.63;8.15;;;;;;;26.57;71.85;100284.94;4918145;29;20055;-70
2023/08/19 01:11:56;;;;;;;9.93;7.85;;;;;;;26.55;71.82;100286.19;4918263;29;20058;-70
2023/08/19 01:14:35;;;;;;;9.07;7.45;;;;;;;26.53;72.03;100291.81;4917973;29;20549;-70
2023/08/19 01:17:05;;;;;;;9.88;7.55;;;;;;;26.53;72.32;100291.81;4918038;29;20055;-70
2023/08/19 01:19:33;;;;;;;9.68;7.47;;;;;;;26.52;72.00;100295.59;4917795;29;20139;-69
2023/08/19 01:22:05;;;;;;;8.70;7.70;;;;;;;26.51;71.99;100294.75;4917970;29;20090;-70
2023/08/19 01:24:36;;;;;;;;;;;;;;;26.50;72.16;100292.22;4918189;29;20058;-70
2023/08/19 01:27:05;;;;;;;9.43;7.75;;;;;;;26.50;72.15;100292.22;4918021;29;19923;-70
2023/08/19 01:29:33;;;;;;;9.35;7.50;;;;;;;26.48;72.15;100286.09;4917873;29;20054;-69
2023/08/19 01:32:03;;;;;;;8.65;7.60;;;;;;;26.47;72.25;100296.19;4917721;29;20074;-70
2023/08/19 01:34:31;;;;;;;10.30;7.53;;;;;;;26.46;72.17;100294.50;4917543;29;20414;-70
2023/08/19 01:37:07;;;;;;;9.27;7.30;;;;;;;26.44;72.29;100298.47;4917471;29;20485;-70
2023/08/19 01:39:38;;;;;;;8.95;7.22;;;;;;;26.44;71.79;100293.00;4917262;29;20063;-69
2023/08/19 01:42:08;;;;;;;8.88;7.78;;;;;;;26.44;71.77;100301.19;4917479;29;20052;-70
2023/08/19 01:44:40;;;;;;;8.65;7.53;;;;;;;26.43;72.19;100294.03;4917326;29;20048;-70
2023/08/19 01:47:16;;;;;;;8.77;7.30;;;;;;;26.42;71.88;100300.53;4917676;29;20056;-70
2023/08/19 01:49:44;;;;;;;9.30;7.95;;;;;;;26.40;72.36;100302.63;4917757;29;20055;-70
2023/08/19 01:52:13;;;;;;;11.95;8.10;;;;;;;26.39;71.90;100314.63;4917479;29;20067;-70
2023/08/19 01:54:42;;;;;;;8.82;7.70;;;;;;;26.40;72.01;100314.41;4917502;29;20080;-70
2023/08/19 01:57:10;;;;;;;11.32;7.72;;;;;;;26.39;71.86;100309.16;4917168;29;20044;-70
2023/08/19 01:59:38;;;;;;;9.70;7.53;;;;;;;26.35;71.81;100314.13;4917391;29;20063;-70
2023/08/19 02:02:07;;;;;;;10.32;7.82;;;;;;;26.37;71.87;100324.88;4917362;29;20111;-70
2023/08/19 02:04:35;;;;;;;8.90;7.28;;;;;;;26.35;71.89;100313.28;4917230;29;20450;-70
2023/08/19 02:07:03;;;;;;;11.43;7.93;;;;;;;26.36;72.16;100314.97;4917206;29;20137;-70
2023/08/19 02:09:32;;;;;;;8.90;7.40;;;;;;;26.33;72.22;100298.94;4917019;29;20408;-70
2023/08/19 02:12:02;;;;;;;9.38;8.10;;;;;;;26.34;72.22;100304.22;4917025;29;20651;-70
2023/08/19 02:14:30;;;;;;;9.75;7.30;;;;;;;26.34;72.26;100306.09;4916874;29;20067;-70
2023/08/19 02:16:58;;;;;;;9.32;7.70;;;;;;;26.33;72.12;100304.41;4917062;29;20067;-70
2023/08/19 02:19:26;;;;;;;10.13;7.40;;;;;;;26.33;72.24;100301.66;4916816;29;20059;-70
2023/08/19 02:21:54;;;;;;;9.70;7.57;;;;;;;26.31;72.16;100310.06;4916803;29;20485;-70
2023/08/19 02:24:22;;;;;;;8.48;7.50;;;;;;;26.30;72.36;100311.13;4916742;29;20054;-70
2023/08/19 02:26:50;;;;;;;10.43;8.00;;;;;;;26.29;72.19;100308.59;4916707;29;20044;-70
2023/08/19 02:29:20;;;;;;;10.93;7.63;;;;;;;26.28;72.44;100298.69;4916906;29;20048;-69
2023/08/19 02:31:48;;;;;;;9.77;7.25;;;;;;;26.27;72.29;100299.72;4916642;29;20045;-70
2023/08/19 02:34:16;;;;;;;9.82;7.07;;;;;;;26.26;72.45;100296.16;4916871;29;20052;-70
2023/08/19 02:36:44;;;;;;;9.63;7.93;;;;;;;26.25;72.01;100289.84;4916739;29;20056;-70
2023/08/19 02:39:16;;;;;;;8.77;7.47;;;;;;;26.24;72.05;100290.84;4916474;29;20056;-70
2023/08/19 02:41:44;;;;;;;9.80;7.38;;;;;;;26.24;72.10;100290.84;4916497;29;20052;-69
2023/08/19 02:44:12;;;;;;;9.90;7.78;;;;;;;26.23;72.26;100286.44;4916510;29;20063;-70
2023/08/19 02:46:41;;;;;;;9.40;7.57;;;;;;;26.23;72.50;100293.78;4916401;29;20059;-70
2023/08/19 02:49:09;;;;;;;9.52;7.70;;;;;;;26.22;72.07;100281.16;4916279;29;20462;-70
2023/08/19 02:51:38;;;;;;;11.50;7.63;;;;;;;26.20;72.51;100280.50;4915956;29;20052;-70
2023/08/19 02:54:06;;;;;;;8.60;7.18;;;;;;;26.19;72.21;100279.66;4916377;29;20052;-70
2023/08/19 02:56:34;;;;;;;9.60;7.68;;;;;;;26.18;72.31;100267.03;4916562;29;20103;-70
2023/08/19 02:59:02;;;;;;;9.90;7.60;;;;;;;26.18;72.20;100274.41;4916644;29;20056;-70
2023/08/19 03:01:31;;;;;;;9.30;7.70;;;;;;;26.18;72.23;100280.72;4916237;29;20047;-70
2023/08/19 03:04:00;;;;;;;10.45;7.30;;;;;;;26.18;72.67;100269.78;4916341;29;20123;-70
2023/08/19 03:06:28;;;;;;;9.65;7.60;;;;;;;26.16;72.21;100271.84;4915932;29;20150;-72
2023/08/19 03:08:56;;;;;;;10.27;7.68;;;;;;;26.17;72.63;100267.25;4916296;29;20108;-70
2023/08/19 03:11:25;;;;;;;11.68;7.55;;;;;;;26.15;72.75;100264.69;4916186;29;20059;-70
2023/08/19 03:13:53;;;;;;;9.80;7.50;;;;;;;26.14;72.41;100273.06;4916079;29;20048;-70
2023/08/19 03:16:21;;;;;;;9.00;7.50;;;;;;;26.12;72.88;100273.25;4915995;29;20048;-70
2023/08/19 03:18:49;;;;;;;10.70;7.63;;;;;;;26.13;72.61;100265.91;4915851;29;20135;-70
2023/08/19 03:21:18;;;;;;;9.77;7.65;;;;;;;26.11;72.81;100279.78;4916104;29;20055;-70
2023/08/19 03:23:47;;;;;;;8.35;7.20;;;;;;;26.09;72.62;100276.41;4915952;29;20059;-70
2023/08/19 03:26:15;;;;;;;10.60;7.90;;;;;;;26.10;72.84;100277.25;4915806;29;20621;-70
2023/08/19 03:28:43;;;;;;;11.18;7.78;;;;;;;26.07;72.68;100283.94;4915761;29;20044;-70
2023/08/19 03:31:11;;;;;;;8.35;7.55;;;;;;;26.08;72.42;100288.38;4915707;29;20906;-70
2023/08/19 03:33:40;;;;;;;10.02;7.88;;;;;;;26.06;72.54;100286.88;4915489;29;20470;-70
2023/08/19 03:36:08;;;;;;;8.50;7.55;;;;;;;26.07;72.44;100288.56;4915742;29;20056;-70
2023/08/19 03:38:37;;;;;;;10.50;7.18;;;;;;;26.07;72.75;100288.56;4915778;29;20104;-70
2023/08/19 03:41:06;;;;;;;10.18;7.53;;;;;;;26.05;73.06;100285.16;4915631;29;20063;-69
2023/08/19 03:43:34;;;;;;;9.48;7.53;;;;;;;26.06;72.74;100293.19;4915538;29;20127;-69
2023/08/19 03:46:02;;;;;;;8.85;7.38;;;;;;;26.04;72.33;100294.41;4915387;29;20142;-69
2023/08/19 03:48:30;;;;;;;9.82;7.68;;;;;;;26.03;72.44;100303.63;4915461;29;20497;-69
2023/08/19 03:50:58;;;;;;;8.68;7.35;;;;;;;26.01;72.46;100306.56;4915595;29;20052;-69
2023/08/19 03:53:26;;;;;;;8.70;7.40;;;;;;;26.02;72.26;100308.25;4915406;29;20103;-69
2023/08/19 03:55:56;;;;;;;9.80;7.43;;;;;;;26.00;72.35;100302.13;4915287;29;20058;-70
2023/08/19 03:58:24;;;;;;;8.63;7.32;;;;;;;26.01;72.81;100303.00;4915342;29;20443;-70
2023/08/19 04:00:52;;;;;;;9.73;7.53;;;;;;;25.98;72.66;100306.97;4915366;29;20087;-69
2023/08/19 04:03:20;;;;;;;9.82;7.13;;;;;;;25.98;72.23;100296.03;4915360;29;20552;-70
2023/08/19 04:05:48;;;;;;;9.80;7.65;;;;;;;25.98;72.36;100301.50;4915619;29;20072;-70
2023/08/19 04:08:16;;;;;;;8.35;6.80;;;;;;;25.96;72.44;100307.16;4915554;29;20080;-69
2023/08/19 04:10:44;;;;;;;8.75;6.97;;;;;;;25.95;72.87;100312.78;4915421;29;20044;-70
2023/08/19 04:13:14;;;;;;;9.77;7.55;;;;;;;25.95;72.71;100315.50;4915319;29;20132;-70
2023/08/19 04:15:42;;;;;;;8.45;7.32;;;;;;;25.94;72.64;100316.56;4915591;29;20060;-70
2023/08/19 04:18:10;;;;;;;10.10;7.40;;;;;;;25.94;72.60;100322.88;4915300;29;20401;-70
2023/08/19 04:20:39;;;;;;;9.20;7.40;;;;;;;25.94;72.53;100325.59;4915253;29;20045;-70
2023/08/19 04:23:07;;;;;;;10.10;7.15;;;;;;;25.94;72.67;100332.94;4915212;29;20063;-70
2023/08/19 04:25:35;;;;;;;9.70;7.40;;;;;;;25.93;72.57;100320.34;4915034;29;20077;-70
2023/08/19 04:28:04;;;;;;;8.27;6.93;;;;;;;25.93;72.33;100320.34;4907291;29;20056;-69
2023/08/19 04:30:33;;;;;;;9.43;7.43;;;;;;;25.93;72.22;100314.88;4915310;29;20119;-70
2023/08/19 04:33:04;;;;;;;10.63;7.30;;;;;;;25.92;72.26;100319.47;4915211;29;20052;-70
2023/08/19 04:35:32;;;;;;;7.97;7.15;;;;;;;25.93;72.62;100328.53;4915070;29;20047;-70
2023/08/19 04:38:00;;;;;;;12.35;7.15;;;;;;;25.92;72.73;100313.16;4914795;29;20079;-70
2023/08/19 04:40:30;;;;;;;9.20;7.03;;;;;;;25.87;72.74;100310.19;4914804;29;20052;-70
2023/08/19 04:42:58;;;;;;;8.90;7.20;;;;;;;25.92;72.21;100313.16;4914774;29;20060;-70
2023/08/19 04:45:26;;;;;;;8.25;7.10;;;;;;;25.91;72.30;100316.94;4915046;29;20498;-69
2023/08/19 04:47:56;;;;;;;10.25;7.03;;;;;;;25.90;72.50;100320.72;4915035;29;20044;-70
2023/08/19 04:50:25;;;;;;;8.52;7.10;;;;;;;25.92;72.55;100318.63;4914855;29;20135;-69
2023/08/19 04:52:53;;;;;;;8.23;6.82;;;;;;;25.91;72.10;100319.69;4914879;29;20055;-70
2023/08/19 04:55:21;;;;;;;9.20;7.15;;;;;;;25.89;72.13;100324.50;4915058;29;20139;-70
2023/08/19 04:57:49;;;;;;;9.48;7.03;;;;;;;25.89;72.50;100330.81;4914764;29;20056;-70
2023/08/19 05:00:17;;;;;;;8.15;6.75;;;;;;;25.89;72.55;100335.41;4914623;29;20556;-70
2023/08/19 05:02:45;;;;;;;8.35;7.03;;;;;;;25.89;72.10;100341.72;4914746;29;20458;-70
2023/08/19 05:05:15;;;;;;;11.85;7.57;;;;;;;25.88;72.59;100345.50;4914748;29;20134;-70
2023/08/19 05:07:44;;;;;;;7.72;6.65;;;;;;;25.90;72.24;100351.63;4914723;29;20577;-70
2023/08/19 05:10:12;;;;;;;7.53;6.72;;;;;;;25.90;72.25;100353.50;4914705;29;20741;-70
2023/08/19 05:12:40;;;;;;;8.23;6.35;;;;;;;25.89;72.53;100357.28;4914830;29;20115;-70
2023/08/19 05:15:11;;;;;;;8.00;6.18;;;;;;;25.89;72.19;100357.28;4918262;29;20052;-70
2023/08/19 05:17:40;;;;;;;8.23;6.63;;;;;;;25.88;72.15;100355.59;4918026;29;20139;-70
2023/08/19 05:20:09;;;;;;;8.43;6.82;;;;;;;25.90;72.51;100370.75;4918006;29;20123;-69
2023/08/19 05:22:38;;;;;;;8.23;6.88;;;;;;;25.88;72.34;100374.72;4918065;29;20052;-70
2023/08/19 05:25:08;;;;;;;9.23;6.65;;;;;;;25.91;72.56;100374.31;4918121;29;20108;-70
2023/08/19 05:27:36;;;;;;;7.80;6.40;;;;;;;25.91;72.45;100383.38;4920338;29;20051;-70
2023/08/19 05:30:07;;;;;;;7.93;6.35;;;;;;;25.92;72.45;100384.22;4918024;29;20044;-70
2023/08/19 05:32:35;;;;;;;8.82;6.10;;;;;;;25.92;72.07;100379.59;4917698;29;20498;-70
2023/08/19 05:35:04;;;;;;;7.68;6.20;;;;;;;25.91;71.82;100382.53;4901359;29;20101;-69
2023/08/19 05:37:32;;;;;;;8.68;6.68;;;;;;;25.92;72.28;100384.22;4898884;29;20147;-69
2023/08/19 05:40:03;;;;;;;7.85;6.50;;;;;;;25.92;71.81;100381.47;4898822;29;20049;-69
2023/08/19 05:42:32;;;;;;;8.65;6.22;;;;;;;25.93;71.85;100385.91;4898688;29;20084;-69
2023/08/19 05:45:00;;;;;;;7.07;6.15;;;;;;;25.92;71.81;100390.53;4898744;29;20396;-69
2023/08/19 05:47:29;;;;;;;9.07;6.10;;;;;;;25.92;72.23;100396.00;4898759;29;20499;-69
2023/08/19 05:49:57;;;;;;;8.13;6.05;;;;;;;25.93;72.11;100405.03;4907150;29;20044;-70
2023/08/19 05:52:25;;;;;;;7.32;6.00;;;;;;;25.93;71.91;100405.03;4917696;29;20115;-69
2023/08/19 05:54:54;;;;;;;7.97;6.13;;;;;;;25.95;72.05;100413.88;4917695;29;20386;-69
2023/08/19 05:57:23;;;;;;;7.95;5.82;;;;;;;25.94;71.94;100412.19;4917466;29;20048;-70
2023/08/19 05:59:51;;;;;;;6.60;5.82;;;;;;;25.96;71.76;100423.78;4917312;29;20466;-70
2023/08/19 06:02:19;;;;;;;8.73;5.72;;;;;;;25.95;71.92;100433.03;4917048;29;20056;-70
2023/08/19 06:04:47;;;;;;;7.43;5.72;;;;;;;25.96;71.57;100445.66;4917188;29;20509;-69
2023/08/19 06:07:21;;;;;;;7.80;5.90;;;;;;;25.97;72.04;100447.38;4917246;29;20087;-70
2023/08/19 06:09:49;;;;;;;7.63;5.78;;;;;;;25.98;71.57;100454.53;4917058;29;20387;-70
2023/08/19 06:12:17;;;;;;;7.03;5.95;;;;;;;25.98;71.62;100448.22;4916951;29;20055;-70
2023/08/19 06:14:46;;;;;;;7.78;6.07;;;;;;;25.99;71.91;100453.50;4916869;29;20094;-70
2023/08/19 06:17:15;;;;;;;9.10;5.90;;;;;;;25.97;71.69;100469.22;4917089;29;20048;-70
2023/08/19 06:19:44;;;;;;;7.38;5.57;;;;;;;25.96;71.96;100470.25;4916951;29;20048;-70
2023/08/19 06:22:12;;;;;;;6.75;5.82;;;;;;;25.94;72.24;100505.13;4916911;29;20142;-70
2023/08/19 06:24:40;;;;;;;9.95;5.90;;;;;;;25.88;72.53;100530.47;4915673;29;20052;-69
2023/08/19 06:27:08;;;;;;;9.30;6.10;;;;;;;25.78;72.58;100529.88;4916736;29;20044;-69
2023/08/19 06:29:36;;;;;;;8.18;6.18;;;;;;;25.73;72.56;100537.75;4916659;29;20450;-72
2023/08/19 06:32:07;;;;;;;8.35;5.82;;;;;;;25.68;73.13;100541.88;4916735;29;20052;-68
2023/08/19 06:34:36;;;;;;;9.27;6.07;;;;;;;25.63;72.70;100536.09;4916565;29;20052;-69
2023/08/19 06:37:05;;;;;;;7.97;6.63;;;;;;;25.56;73.48;100573.34;4916615;29;20060;-68
2023/08/19 06:39:38;;;;;;;8.63;6.80;;;;;;;25.42;74.10;100590.53;4916624;29;20052;-68
2023/08/19 06:42:07;;;;;;;9.20;6.90;;;;;;;25.43;74.40;100584.03;4916797;29;20052;-70
2023/08/19 06:44:38;;;;;;;9.13;7.13;;;;;;;25.49;74.22;100599.72;4917988;29;20055;-72
2023/08/19 06:47:10;;;;;;;8.45;6.80;;;;;;;25.55;73.79;100604.44;4916783;29;20099;-71
2023/08/19 06:49:39;;;;;;;10.02;6.93;;;;;;;25.59;73.53;100602.22;4916474;29;20056;-71
2023/08/19 06:52:09;;;;;;;7.85;6.43;;;;;;;25.63;73.45;100614.47;4916166;29;20054;-70
2023/08/19 06:54:37;;;;;;;6.35;5.68;;;;;;;25.66;72.66;100628.59;4916402;29;20071;-71
2023/08/19 06:57:08;;;;;;;8.57;6.30;;;;;;;25.72;72.62;100634.41;4916210;29;20044;-70
2023/08/19 06:59:38;;;;;;;7.40;5.93;;;;;;;25.76;72.45;100638.47;4916325;29;20052;-71
2023/08/19 07:13:49;;;;;;;18.00;8.40;;;;;;;25.86;71.50;100647.28;4899655;29;20645;-75
2023/08/19 07:16:28;;;;;;;17.83;7.88;;;;;;;25.87;71.96;100651.72;4917507;29;20052;-76
2023/08/19 07:19:02;;;;;;;15.73;8.05;;;;;;;25.86;71.07;100645.38;4916152;29;20052;-80
2023/08/19 07:21:32;;;;;;;11.00;6.60;;;;;;;25.88;71.03;100637.03;4916767;29;20474;-75
2023/08/19 07:24:01;;;;;;;12.00;6.55;;;;;;;25.88;71.64;100637.03;4935069;29;20048;-77
2023/08/19 07:26:31;;;;;;;10.50;5.95;;;;;;;25.88;71.15;100645.22;4935218;29;20052;-73
2023/08/19 07:29:01;;;;;;;11.93;6.68;;;;;;;25.86;71.13;100639.94;4934898;29;20050;-73
2023/08/19 07:31:30;;;;;;;11.38;6.63;;;;;;;25.85;71.42;100651.03;4934760;29;20052;-73
2023/08/19 07:33:59;;;;;;;12.55;5.97;;;;;;;25.84;71.50;100643.88;4935108;29;20055;-74
2023/08/19 07:36:28;;;;;;;11.73;6.18;;;;;;;25.84;71.57;100649.34;4934279;29;20063;-75
2023/08/19 07:38:56;;;;;;;10.65;5.72;;;;;;;25.84;71.82;100646.63;4921113;29;20119;-75
2023/08/19 07:41:24;;;;;;;14.98;6.00;;;;;;;25.82;72.86;100644.06;4915712;29;20048;-73
2023/08/19 07:43:52;;;;;;;10.68;5.57;;;;;;;25.83;72.62;100644.91;4915696;29;20070;-74
2023/08/19 07:46:21;;;;;;;9.65;5.45;;;;;;;25.80;72.54;100627.00;4915628;29;20048;-73
2023/08/19 07:48:50;;;;;;;8.68;5.00;;;;;;;25.80;72.81;100620.69;4915725;29;20083;-73
2023/08/19 07:51:18;;;;;;;10.20;5.47;;;;;;;25.79;72.67;100624.47;4915950;29;20104;-73
2023/08/19 07:53:46;;;;;;;10.25;5.20;;;;;;;25.79;72.84;100619.00;4915650;29;20052;-75
2023/08/19 07:56:16;;;;;;;11.55;5.85;;;;;;;25.81;73.75;100617.78;4915606;29;20497;-72
2023/08/19 07:58:44;;;;;;;12.45;6.15;;;;;;;25.84;74.11;100611.09;4928986;29;20118;-75
2023/08/19 08:01:13;;;;;;;22.77;7.03;;;;;;;25.90;75.18;100602.19;4935077;29;20051;-77
2023/08/19 08:03:43;;;;;;;25.80;7.10;;;;;;;25.91;74.31;100606.59;4936618;29;20143;-75
2023/08/19 08:06:11;;;;;;;15.50;6.43;;;;;;;25.91;74.53;100612.06;4934588;29;20107;-73
2023/08/19 08:08:40;;;;;;;21.95;9.57;;;;;;;25.91;74.18;100620.25;4934370;29;20090;-74
2023/08/19 08:11:08;;;;;;;22.17;11.02;;;;;;;25.88;74.28;100609.72;4934238;29;20055;-75
2023/08/19 08:13:36;;;;;;;17.70;9.75;;;;;;;25.87;73.67;100605.28;4934022;29;20056;-74
2023/08/19 08:16:04;;;;;;;20.17;11.95;;;;;;;25.89;73.72;100603.22;4934348;29;20052;-71
2023/08/19 08:18:33;;;;;;;24.65;12.50;;;;;;;25.89;73.56;100595.88;4931605;29;20072;-75
2023/08/19 08:21:03;;;;;;;23.40;13.32;;;;;;;25.88;73.58;100590.59;4934474;29;20143;-71
2023/08/19 08:23:31;;;;;;;27.95;12.68;;;;;;;25.88;73.28;100585.13;4934370;29;20059;-75
2023/08/19 08:25:59;;;;;;;20.33;12.52;;;;;;;25.87;73.24;100584.28;4934091;29;20116;-74
2023/08/19 08:28:28;;;;;;;25.58;12.38;;;;;;;25.87;73.18;100583.41;4934481;29;20103;-74
2023/08/19 08:30:56;;;;;;;20.75;12.88;;;;;;;25.86;73.19;100571.63;4919987;29;20107;-74
2023/08/19 08:33:26;;;;;;;22.73;12.65;;;;;;;25.86;72.92;100566.16;4915191;29;20399;-75
2023/08/19 08:35:54;;;;;;;21.55;12.90;;;;;;;25.85;72.99;100564.44;4915238;29;20048;-74
2023/08/19 08:38:23;;;;;;;18.40;11.85;;;;;;;25.85;73.31;100563.59;4915141;29;20087;-74
2023/08/19 08:40:52;;;;;;;23.08;12.50;;;;;;;25.84;73.39;100557.28;4915198;29;20082;-74
2023/08/19 08:43:20;;;;;;;17.60;11.23;;;;;;;25.85;73.11;100553.53;4915084;29;20115;-74
2023/08/19 08:45:50;;;;;;;20.45;11.63;;;;;;;25.85;73.48;100539.00;4914898;29;20100;-74
2023/08/19 08:48:19;;;;;;;20.50;11.93;;;;;;;25.84;73.45;100529.97;4916053;29;20048;-74
2023/08/19 08:50:48;;;;;;;19.02;11.30;;;;;;;25.84;73.10;100519.03;4918554;29;20052;-73
2023/08/19 08:53:17;;;;;;;19.92;12.00;;;;;;;25.84;73.32;100521.78;4918466;29;20056;-73
2023/08/19 08:55:47;;;;;;;17.33;11.20;;;;;;;25.86;73.17;100521.59;4918509;29;20090;-73
2023/08/19 08:58:15;;;;;;;20.83;10.40;;;;;;;25.84;72.94;100508.09;4918670;29;20063;-73
2023/08/19 09:00:44;;;;;;;18.50;11.27;;;;;;;25.85;72.75;100508.94;4918418;29;20048;-74
2023/08/19 09:03:17;;;;;;;21.15;11.23;;;;;;;25.86;72.75;100510.66;4918262;29;20552;-74
2023/08/19 09:05:49;;;;;;;16.08;10.23;;;;;;;25.85;72.76;100508.94;4918335;29;20079;-74
2023/08/19 09:08:21;;;;;;;14.57;9.75;;;;;;;25.85;72.90;100512.53;4918802;29;20052;-75
2023/08/19 09:10:50;;;;;;;14.85;9.88;;;;;;;25.87;73.05;100509.66;4918458;29;20064;-74
2023/08/19 09:13:25;;;;;;;16.65;10.07;;;;;;;25.86;72.77;100516.97;4918330;29;20060;-74
2023/08/19 09:15:53;;;;;;;15.65;9.63;;;;;;;25.87;73.10;100523.31;4917973;29;20056;-74
2023/08/19 09:18:22;;;;;;;16.85;9.93;;;;;;;25.87;72.83;100517.84;4918030;29;20056;-74
2023/08/19 09:20:50;;;;;;;15.60;10.38;;;;;;;25.88;72.81;100527.75;4917934;29;20050;-71
2023/08/19 09:23:18;;;;;;;14.60;9.50;;;;;;;25.87;73.15;100529.63;4937012;29;20063;-75
2023/08/19 09:25:47;;;;;;;13.38;8.85;;;;;;;25.87;72.80;100526.88;4937023;29;20123;-74
2023/08/19 09:28:18;;;;;;;12.93;8.45;;;;;;;25.88;72.88;100534.03;4936928;29;20054;-73
2023/08/19 09:30:46;;;;;;;12.95;8.82;;;;;;;25.86;73.15;100527.91;4936670;29;20051;-75
2023/08/19 09:33:19;;;;;;;12.38;8.43;;;;;;;25.89;72.63;100540.34;4936866;29;20047;-72
2023/08/19 09:35:57;;;;;;;13.02;8.60;;;;;;;25.88;73.18;100536.78;4936785;29;20051;-75
2023/08/19 09:38:27;;;;;;;13.70;8.57;;;;;;;25.88;73.03;100534.03;4936768;29;20082;-74
2023/08/19 09:41:00;;;;;;;13.05;8.30;;;;;;;25.89;72.81;100526.69;4936799;29;20126;-75
2023/08/19 09:43:30;;;;;;;12.32;8.30;;;;;;;25.87;73.04;100532.34;4936543;29;20067;-75
2023/08/19 09:45:59;;;;;;;13.55;7.88;;;;;;;25.88;73.53;100530.47;4936803;29;20142;-74
2023/08/19 09:48:27;;;;;;;10.90;7.72;;;;;;;25.88;73.49;100530.47;4936510;29;20485;-73
2023/08/19 09:50:56;;;;;;;11.27;8.13;;;;;;;25.87;73.45;100523.31;4936754;29;20196;-74
2023/08/19 09:53:29;;;;;;;10.88;7.53;;;;;;;25.86;73.37;100527.03;4940006;29;20102;-70
2023/08/19 09:55:57;;;;;;;11.00;7.50;;;;;;;25.88;73.71;100525.00;4936314;29;20456;-70
2023/08/19 09:58:26;;;;;;;10.55;7.30;;;;;;;25.87;73.45;100520.56;4936484;29;20457;-69
2023/08/19 10:00:56;;;;;;;12.90;7.35;;;;;;;25.88;74.48;100519.53;4936237;29;20048;-70
2023/08/19 10:03:25;;;;;;;10.85;6.90;;;;;;;25.85;75.69;100525.34;4935981;29;20059;-69
2023/08/19 10:05:55;;;;;;;10.25;6.70;;;;;;;25.81;76.21;100519.41;4936263;29;20138;-73
2023/08/19 10:08:27;;;;;;;8.82;6.75;;;;;;;25.80;76.55;100522.34;4936227;29;20066;-70
2023/08/19 10:10:55;;;;;;;13.43;6.63;;;;;;;25.78;77.00;100514.34;4936444;29;20077;-69
2023/08/19 10:13:25;;;;;;;8.90;6.40;;;;;;;25.77;76.91;100523.56;4936209;29;20083;-70
2023/08/19 10:15:59;;;;;;;9.02;6.63;;;;;;;25.78;77.44;100529.88;4936355;29;20127;-71
2023/08/19 10:18:32;;;;;;;9.85;6.25;;;;;;;25.79;77.59;100521.50;4936121;29;20043;-76
2023/08/19 10:21:01;;;;;;;;;;;;;;;25.81;77.78;100521.31;4936398;29;20048;-72
2023/08/19 10:23:30;;;;;;;9.27;6.50;;;;;;;25.83;77.44;100521.97;4936136;29;20256;-74
2023/08/19 10:25:59;;;;;;;9.18;6.25;;;;;;;25.85;78.38;100517.16;4936644;29;20655;-77
2023/08/19 10:28:28;;;;;;;9.02;6.50;;;;;;;25.87;78.19;100515.97;4936245;29;20047;-74
2023/08/19 10:31:12;;;;;;;10.70;6.47;;;;;;;25.89;77.96;100518.50;4935746;29;20520;-75
2023/08/19 10:33:43;;;;;;;8.38;6.20;;;;;;;25.90;77.42;100512.00;4935677;29;20062;-74
2023/08/19 10:36:15;;;;;;;8.38;6.85;;;;;;;25.92;77.32;100507.19;4935873;29;20521;-71
2023/08/19 10:38:47;;;;;;;9.35;6.32;;;;;;;25.89;77.53;100489.28;4935969;29;20075;-70
2023/08/19 10:41:18;;;;;;;8.27;5.82;;;;;;;25.94;77.39;100491.44;4935815;29;20074;-71
2023/08/19 10:43:55;;;;;;;10.25;6.43;;;;;;;25.96;77.18;100481.16;4935773;29;20189;-70
2023/08/19 10:46:31;;;;;;;8.10;6.22;;;;;;;25.97;76.72;100474.69;4935686;29;20052;-73
2023/08/19 10:48:59;;;;;;;10.57;5.70;;;;;;;26.00;76.40;100477.03;4935878;29;20114;-70
2023/08/19 10:51:51;;;;;;;7.70;5.55;;;;;;;26.03;76.71;100484.88;4936293;29;20192;-80
2023/08/19 10:54:27;;;;;;;6.70;5.53;;;;;;;26.05;76.56;100485.53;4935605;29;20056;-71
2023/08/19 10:57:12;;;;;;;9.98;5.82;;;;;;;26.08;76.44;100482.44;4935703;29;20058;-70
2023/08/19 10:59:43;;;;;;;11.15;6.60;;;;;;;26.19;77.20;100487.44;4935616;29;20048;-71
2023/08/19 11:02:13;;;;;;;9.55;6.65;;;;;;;26.30;77.30;100482.53;4935205;29;20131;-71
2023/08/19 11:04:43;;;;;;;8.75;6.65;;;;;;;26.33;76.85;100479.41;4935012;29;20083;-70
2023/08/19 11:07:11;;;;;;;10.63;6.65;;;;;;;26.33;77.04;100482.13;4935611;29;20134;-71
2023/08/19 11:09:41;;;;;;;8.68;6.78;;;;;;;26.30;76.86;100477.06;4935662;29;20091;-70
2023/08/19 11:12:10;;;;;;;7.70;6.90;;;;;;;26.29;76.39;100475.38;4934913;29;20090;-70
2023/08/19 11:14:38;;;;;;;9.10;6.40;;;;;;;26.29;76.75;100475.38;4926011;29;20060;-71
2023/08/19 11:17:06;;;;;;;7.50;6.55;;;;;;;26.29;76.19;100473.47;4916283;29;20108;-70
2023/08/19 11:19:36;;;;;;;9.60;6.78;;;;;;;26.30;76.54;100471.59;4916411;29;20080;-70
2023/08/19 11:22:05;;;;;;;8.85;6.80;;;;;;;26.33;76.50;100479.41;4908918;29;20375;-70
2023/08/19 11:24:34;;;;;;;9.35;6.53;;;;;;;26.34;76.09;100476.47;4916264;29;20048;-70
2023/08/19 11:27:03;;;;;;;7.82;6.32;;;;;;;26.37;76.45;100481.63;4908438;29;20087;-74
2023/08/19 11:29:31;;;;;;;9.73;6.90;;;;;;;26.39;75.95;100475.97;4916389;29;20108;-70
2023/08/19 11:32:00;;;;;;;8.82;6.38;;;;;;;26.40;76.03;100470.28;4917099;29;20048;-71
2023/08/19 11:34:29;;;;;;;8.50;6.45;;;;;;;26.41;75.59;100472.00;4935150;29;20056;-72
2023/08/19 11:36:59;;;;;;;8.27;6.68;;;;;;;26.44;75.30;100470.75;4935202;29;20059;-74
2023/08/19 11:39:32;;;;;;;8.40;6.05;;;;;;;26.45;75.07;100467.84;4935256;29;20111;-72
2023/08/19 11:42:02;;;;;;;8.93;6.55;;;;;;;26.46;75.10;100461.34;4938507;29;20048;-71
2023/08/19 11:44:31;;;;;;;9.70;7.05;;;;;;;26.47;75.26;100456.72;4944030;29;20066;-72